createdAt,value
2022-09-02T00:01:57.971Z,2.2
2022-09-02T00:13:57.894Z,2.2
2022-09-02T00:25:58.316Z,2.3
2022-09-02T00:37:57.879Z,2.3
2022-09-02T00:49:57.861Z,1.8
2022-09-02T01:01:57.932Z,1.8
2022-09-02T01:13:57.846Z,1.8
2022-09-02T01:25:57.851Z,1.6
2022-09-02T01:37:57.863Z,1.6
2022-09-02T01:49:58.098Z,1.6
2022-09-02T02:01:57.954Z,1.6
2022-09-02T02:13:57.881Z,1.6
2022-09-02T02:25:57.837Z,1.8
2022-09-02T02:37:57.846Z,1.8
2022-09-02T02:49:59.637Z,1.9
2022-09-02T03:01:57.959Z,1.9
2022-09-02T03:13:57.882Z,1.9
2022-09-02T03:25:57.865Z,2.5
2022-09-02T03:37:57.842Z,2.5
2022-09-02T03:49:57.880Z,1.6
2022-09-02T04:01:57.919Z,1.6
2022-09-02T04:13:57.857Z,1.6
2022-09-02T04:25:57.894Z,1.9
2022-09-02T04:37:57.872Z,1.9
2022-09-02T04:49:57.873Z,2.3
2022-09-02T05:01:58.010Z,2.3
2022-09-02T05:13:57.898Z,2.3
2022-09-02T05:25:57.900Z,3.2
2022-09-02T05:38:00.914Z,3.2
2022-09-02T05:49:57.923Z,2.2
2022-09-02T06:01:58.029Z,2.2
2022-09-02T06:13:57.936Z,2.2
2022-09-02T06:25:57.904Z,3.1
2022-09-02T06:37:57.932Z,3.1
2022-09-02T06:49:57.854Z,5.9
2022-09-02T07:01:58.082Z,5.9
2022-09-02T07:13:57.874Z,5.9
2022-09-02T07:25:57.853Z,4.8
2022-09-02T07:37:57.854Z,4.8
2022-09-02T07:50:20.994Z,2.4
2022-09-02T08:01:57.928Z,2.4
2022-09-02T08:13:57.852Z,2.4
2022-09-02T08:25:57.839Z,3.3
2022-09-02T08:37:57.839Z,3.3
2022-09-02T08:49:57.878Z,3.6
2022-09-02T09:01:57.917Z,3.6
2022-09-02T09:13:57.882Z,3.6
2022-09-02T09:25:57.858Z,3.3
2022-09-02T09:37:57.860Z,3.3
2022-09-02T09:49:57.889Z,1.9
2022-09-02T10:01:57.926Z,1.9
2022-09-02T10:13:57.877Z,1.9
2022-09-02T10:25:57.871Z,2.7
2022-09-02T10:37:57.841Z,2.7
2022-09-02T10:49:57.863Z,3.0
2022-09-02T11:01:57.861Z,3.0
2022-09-02T11:13:57.883Z,3.0
2022-09-02T11:25:57.945Z,3.0
2022-09-02T11:37:57.890Z,3.0
2022-09-02T11:49:57.844Z,2.4
2022-09-02T12:01:57.869Z,2.4
2022-09-02T12:13:57.862Z,2.4
2022-09-02T12:25:57.881Z,2.6
2022-09-02T12:37:57.867Z,2.6
2022-09-02T12:49:57.874Z,2.7
2022-09-02T13:13:57.857Z,2.7
2022-09-02T13:25:57.863Z,2.8
2022-09-02T13:37:57.969Z,2.8
2022-09-02T13:49:57.881Z,3.0
2022-09-02T14:01:58.038Z,3.0
2022-09-02T14:13:57.856Z,3.0
2022-09-02T14:25:57.880Z,2.0
2022-09-02T14:37:57.860Z,2.0
2022-09-02T14:49:57.891Z,2.2
2022-09-02T15:01:57.877Z,2.2
2022-09-02T15:13:57.863Z,2.2
2022-09-02T15:25:57.849Z,2.2
2022-09-02T15:37:58.221Z,2.2
2022-09-02T15:49:57.882Z,4.1
2022-09-02T16:01:57.899Z,4.1
2022-09-02T16:13:57.866Z,4.1
2022-09-02T16:25:57.869Z,4.3
2022-09-02T16:37:58.519Z,4.3
2022-09-02T16:49:57.886Z,2.2
2022-09-02T17:01:57.954Z,2.2
2022-09-02T17:13:57.870Z,2.2
2022-09-02T17:25:57.861Z,2.8
2022-09-02T17:37:57.856Z,2.8
2022-09-02T17:49:58.141Z,3.2
2022-09-02T18:01:58.050Z,3.2
2022-09-02T18:13:57.869Z,3.2
2022-09-02T18:25:58.057Z,3.6
2022-09-02T18:37:57.848Z,3.6
2022-09-02T18:49:57.873Z,3.7
2022-09-02T19:01:58.021Z,3.7
2022-09-02T19:13:57.868Z,3.7
2022-09-02T19:25:57.866Z,2.9
2022-09-02T19:37:57.853Z,2.9
2022-09-02T19:49:57.877Z,3.1
2022-09-02T20:01:57.951Z,3.1
2022-09-02T20:13:58.077Z,3.1
2022-09-02T20:25:57.939Z,2.0
2022-09-02T20:37:57.907Z,2.0
2022-09-02T20:49:57.925Z,2.7
2022-09-02T21:01:57.993Z,2.7
2022-09-02T21:13:57.915Z,2.7
2022-09-02T21:25:57.898Z,2.0
2022-09-02T21:37:57.866Z,2.0
2022-09-02T21:49:57.880Z,1.9
2022-09-02T22:01:57.897Z,1.9
2022-09-02T22:13:58.242Z,1.9
2022-09-02T22:25:57.862Z,1.7
2022-09-02T22:37:57.847Z,1.7
2022-09-02T22:49:57.864Z,2.2
2022-09-02T23:01:57.924Z,2.2
2022-09-02T23:13:57.871Z,2.2
2022-09-02T23:25:57.844Z,2.3
2022-09-02T23:37:57.857Z,2.3
2022-09-02T23:49:57.898Z,3.7
